Time;durP1;ratioP1;P1;durP2;ratioP2;P2;SDS_P1;SDS_P2;PMS_P1;PMS_P2;Temp;Humidity;BMP_temperature;BMP_pressure;BME280_temperature;BME280_humidity;BME280_pressure;Samples;Min_cycle;Max_cycle;Signal;HPM_P1;HPM_P2
2023/12/26 00:01:11;;;;;;;2.97;1.98;;;;;;;8.19;100.00;99884.63;7396593;19;20030;-68
2023/12/26 00:03:40;;;;;;;4.47;2.20;;;;;;;8.18;100.00;99879.44;7398310;19;20019;-68
2023/12/26 00:06:09;;;;;;;2.88;2.10;;;;;;;8.18;100.00;99879.44;7398630;19;20477;-69
2023/12/26 00:08:37;;;;;;;3.60;2.08;;;;;;;8.18;100.00;99871.59;7398462;19;20014;-68
2023/12/26 00:11:06;;;;;;;7.10;2.40;;;;;;;8.17;100.00;99878.56;7396557;19;20014;-68
2023/12/26 00:13:35;;;;;;;5.68;1.85;;;;;;;8.16;100.00;99861.16;7397573;19;20498;-69
2023/12/26 00:16:03;;;;;;;2.55;1.83;;;;;;;8.16;100.00;99861.16;7397590;19;20015;-69
2023/12/26 00:18:34;;;;;;;3.20;1.73;;;;;;;8.15;100.00;99864.69;7396520;19;20011;-69
2023/12/26 00:21:03;;;;;;;3.25;2.13;;;;;;;8.15;100.00;99856.84;7398684;19;20374;-69
2023/12/26 00:23:39;;;;;;;4.88;1.90;;;;;;;8.16;100.00;99853.34;7397716;19;20014;-69
2023/12/26 00:26:07;;;;;;;3.92;1.92;;;;;;;8.16;100.00;99842.88;7398934;19;20010;-67
2023/12/26 00:28:36;;;;;;;3.45;2.13;;;;;;;8.14;100.00;99837.69;7396293;19;20014;-66
2023/12/26 00:31:04;;;;;;;3.78;1.98;;;;;;;8.14;100.00;99834.25;7395692;19;20003;-66
2023/12/26 00:33:35;;;;;;;3.15;1.92;;;;;;;8.14;100.00;99829.88;7397312;19;20027;-66
2023/12/26 00:36:04;;;;;;;4.28;2.03;;;;;;;8.14;100.00;99819.41;7397622;19;20478;-66
2023/12/26 00:38:32;;;;;;;2.17;1.70;;;;;;;8.14;100.00;99808.13;7397964;19;20019;-67
2023/12/26 00:41:01;;;;;;;3.58;1.95;;;;;;;8.14;100.00;99806.34;7397448;19;20019;-67
2023/12/26 00:43:30;;;;;;;4.95;1.90;;;;;;;8.15;100.00;99796.75;7397064;19;20018;-69
2023/12/26 00:45:58;;;;;;;3.65;1.80;;;;;;;8.16;100.00;99790.63;7397325;19;20023;-66
2023/12/26 00:48:27;;;;;;;3.85;2.03;;;;;;;8.15;100.00;99791.50;7395362;19;20006;-66
2023/12/26 00:50:58;;;;;;;4.03;1.70;;;;;;;8.15;100.00;99786.28;7395642;19;20014;-69
2023/12/26 00:53:26;;;;;;;2.47;1.88;;;;;;;8.15;100.00;99773.22;7395231;19;20023;-68
2023/12/26 00:55:55;;;;;;;4.82;2.03;;;;;;;8.16;100.00;99764.50;7397371;19;20042;-69
2023/12/26 00:58:24;;;;;;;4.40;2.05;;;;;;;8.15;100.00;99760.16;7396994;19;20023;-68
2023/12/26 01:00:52;;;;;;;3.38;2.47;;;;;;;8.15;100.00;99768.00;7397136;19;20364;-68
2023/12/26 01:03:22;;;;;;;4.32;2.58;;;;;;;8.15;100.00;99768.00;7396456;19;20035;-68
2023/12/26 01:05:51;;;;;;;4.18;2.63;;;;;;;8.15;100.00;99766.25;7396549;19;20011;-68
2023/12/26 01:08:23;;;;;;;5.50;2.90;;;;;;;8.15;100.00;99766.25;7396575;19;20010;-68
2023/12/26 01:10:52;;;;;;;3.60;2.92;;;;;;;8.15;100.00;99754.94;7398868;19;20103;-68
2023/12/26 01:13:20;;;;;;;4.30;3.00;;;;;;;8.17;100.00;99754.91;7396290;19;20389;-69
2023/12/26 01:15:49;;;;;;;4.97;3.25;;;;;;;8.17;100.00;99747.09;7394107;19;20018;-68
2023/12/26 01:18:18;;;;;;;4.38;2.88;;;;;;;8.17;100.00;99747.94;7396262;19;20017;-68
2023/12/26 01:20:46;;;;;;;4.40;3.10;;;;;;;8.19;100.00;99745.25;7396541;19;20014;-69
2023/12/26 01:23:15;;;;;;;7.38;3.70;;;;;;;8.18;100.00;99738.34;7395702;19;20010;-69
2023/12/26 01:25:46;;;;;;;5.20;3.55;;;;;;;8.19;100.00;99740.03;7396414;19;20010;-69
2023/12/26 01:28:15;;;;;;;4.55;2.90;;;;;;;8.19;100.00;99730.47;7396822;19;20014;-69
2023/12/26 01:30:43;;;;;;;6.43;3.50;;;;;;;8.19;100.00;99738.31;7396875;19;20014;-69
2023/12/26 01:33:12;;;;;;;4.72;2.83;;;;;;;8.20;100.00;99732.19;7395338;19;20015;-69
2023/12/26 01:35:41;;;;;;;3.03;2.15;;;;;;;8.20;100.00;99721.72;7396151;19;20015;-69
2023/12/26 01:38:09;;;;;;;4.75;2.30;;;;;;;8.22;100.00;99725.13;7394054;19;20478;-70
2023/12/26 01:40:40;;;;;;;2.08;1.88;;;;;;;8.24;100.00;99718.13;7394306;19;20014;-69
2023/12/26 01:43:11;;;;;;;1.95;1.73;;;;;;;8.26;100.00;99711.06;7393880;19;20010;-69
2023/12/26 01:45:40;;;;;;;2.28;1.60;;;;;;;8.28;100.00;99713.66;7394486;19;20014;-69
2023/12/26 01:48:08;;;;;;;4.85;1.30;;;;;;;8.30;100.00;99701.41;7395428;19;20482;-70
2023/12/26 01:50:37;;;;;;;1.30;1.02;;;;;;;8.32;100.00;99700.44;7395308;19;20006;-69
2023/12/26 01:53:06;;;;;;;1.90;0.93;;;;;;;8.37;100.00;99695.09;7393883;19;20014;-69
2023/12/26 01:55:35;;;;;;;0.90;0.80;;;;;;;8.40;100.00;99691.53;7395212;19;20360;-69
2023/12/26 01:58:04;;;;;;;0.80;0.70;;;;;;;8.43;100.00;99683.63;7393492;19;20013;-70
2023/12/26 02:00:36;;;;;;;0.40;0.40;;;;;;;8.47;100.00;99685.25;7394879;19;20010;-69
2023/12/26 02:03:05;;;;;;;1.00;0.77;;;;;;;8.52;100.00;99687.72;7393959;19;20021;-69
2023/12/26 02:05:33;;;;;;;0.70;0.68;;;;;;;8.54;100.00;99680.69;7395327;19;20478;-69
2023/12/26 02:08:02;;;;;;;2.15;0.40;;;;;;;8.57;100.00;99680.63;7393555;19;20011;-69
2023/12/26 02:10:30;;;;;;;0.73;0.38;;;;;;;8.57;100.00;99668.38;7394814;19;20016;-69
2023/12/26 02:12:59;;;;;;;0.55;0.40;;;;;;;8.60;100.00;99678.75;7394065;19;20014;-69
2023/12/26 02:15:28;;;;;;;0.40;0.40;;;;;;;8.62;100.00;99671.72;7395004;19;20015;-70
2023/12/26 02:17:59;;;;;;;0.50;0.45;;;;;;;8.64;100.00;99667.31;7393001;19;20014;-69
2023/12/26 02:20:28;;;;;;;0.38;0.38;;;;;;;8.68;100.00;99659.34;7395117;19;20015;-69
2023/12/26 02:22:56;;;;;;;0.68;0.50;;;;;;;8.70;100.00;99658.41;7394200;19;20011;-69
2023/12/26 02:25:28;;;;;;;0.93;0.47;;;;;;;8.72;100.00;99653.13;7394740;19;20019;-69
2023/12/26 02:27:58;;;;;;;1.60;0.60;;;;;;;8.73;100.00;99647.84;7392631;19;20007;-70
2023/12/26 02:30:27;;;;;;;0.50;0.40;;;;;;;8.75;100.00;99655.66;7394341;19;20011;-69
2023/12/26 02:32:57;;;;;;;0.50;0.50;;;;;;;8.77;100.00;99641.63;7392459;19;20478;-69
2023/12/26 02:35:26;;;;;;;0.60;0.40;;;;;;;8.77;100.00;99641.63;7394102;19;20011;-69
2023/12/26 02:37:54;;;;;;;0.65;0.50;;;;;;;8.80;100.00;99640.66;7392494;19;20010;-69
2023/12/26 02:40:24;;;;;;;0.50;0.35;;;;;;;8.84;100.00;99642.25;7394029;19;20373;-69
2023/12/26 02:42:55;;;;;;;1.95;0.60;;;;;;;8.86;100.00;99658.78;7394106;19;20022;-69
2023/12/26 02:45:24;;;;;;;1.80;0.60;;;;;;;8.90;100.00;99652.53;7394628;19;20030;-69
2023/12/26 02:47:53;;;;;;;1.15;0.60;;;;;;;8.92;100.00;99642.00;7394169;19;20124;-69
2023/12/26 02:50:22;;;;;;;0.80;0.50;;;;;;;8.94;100.00;99638.44;7391808;19;20011;-69
2023/12/26 02:52:51;;;;;;;0.73;0.50;;;;;;;8.98;100.00;99636.59;7392250;19;20011;-69
2023/12/26 02:55:19;;;;;;;1.20;0.57;;;;;;;8.99;100.00;99637.47;7394046;19;20122;-69
2023/12/26 02:57:48;;;;;;;1.48;0.68;;;;;;;9.02;100.00;99639.97;7391854;19;20018;-69
2023/12/26 03:00:20;;;;;;;2.15;0.40;;;;;;;9.04;100.00;99652.09;7393501;19;20006;-69
2023/12/26 03:02:48;;;;;;;0.98;0.43;;;;;;;9.10;100.00;99643.19;7394034;19;20043;-69
2023/12/26 03:05:17;;;;;;;1.02;0.40;;;;;;;9.12;100.00;99625.66;7393324;19;20014;-69
2023/12/26 03:07:45;;;;;;;0.57;0.57;;;;;;;9.13;100.00;99628.22;7393658;19;20021;-68
2023/12/26 03:10:14;;;;;;;1.63;0.47;;;;;;;9.19;100.00;99632.41;7391733;19;20011;-68
2023/12/26 03:12:43;;;;;;;0.55;0.50;;;;;;;9.22;100.00;99631.44;7398630;19;20006;-68
2023/12/26 03:15:15;;;;;;;1.00;0.50;;;;;;;9.23;100.00;99634.00;7400772;19;20011;-68
2023/12/26 03:17:46;;;;;;;0.85;0.40;;;;;;;9.27;100.00;99630.38;7397988;19;20022;-68
2023/12/26 03:20:15;;;;;;;2.75;0.57;;;;;;;9.30;100.00;99632.03;7400252;19;20493;-68
2023/12/26 03:22:44;;;;;;;1.63;0.40;;;;;;;9.34;100.00;99651.97;7397645;19;20018;-68
2023/12/26 03:25:12;;;;;;;0.57;0.40;;;;;;;9.38;100.00;99621.31;7400026;19;20391;-66
2023/12/26 03:27:41;;;;;;;0.30;0.30;;;;;;;9.42;100.00;99633.38;7399987;19;20023;-67
2023/12/26 03:30:11;;;;;;;2.00;0.50;;;;;;;9.43;100.00;99641.19;7400262;19;20014;-67
2023/12/26 03:32:39;;;;;;;0.75;0.30;;;;;;;9.48;100.00;99612.22;7398763;19;20014;-67
2023/12/26 03:35:11;;;;;;;0.43;0.30;;;;;;;9.49;100.00;99613.94;7399743;19;20061;-67
2023/12/26 03:37:39;;;;;;;0.47;0.30;;;;;;;9.54;100.00;99612.00;7400262;19;20359;-69
2023/12/26 03:40:10;;;;;;;0.30;0.28;;;;;;;9.54;100.00;99609.41;7399917;19;20018;-69
2023/12/26 03:42:38;;;;;;;0.30;0.30;;;;;;;9.58;100.00;99607.53;7399466;19;20007;-68
2023/12/26 03:45:07;;;;;;;1.45;0.30;;;;;;;9.59;100.00;99601.34;7397361;19;20014;-68
2023/12/26 03:47:36;;;;;;;0.47;0.30;;;;;;;9.56;100.00;99628.50;7399769;19;20018;-69
2023/12/26 03:50:14;;;;;;;0.47;0.30;;;;;;;9.56;100.00;99618.03;7396971;19;20006;-69
2023/12/26 03:52:43;;;;;;;0.55;0.40;;;;;;;9.58;100.00;99610.97;7397700;19;20010;-68
2023/12/26 03:55:13;;;;;;;0.88;0.32;;;;;;;9.57;100.00;99613.66;7399475;19;20038;-69
2023/12/26 03:57:41;;;;;;;2.13;0.50;;;;;;;9.56;100.00;99607.56;7399486;19;20010;-68
2023/12/26 04:00:11;;;;;;;1.23;0.43;;;;;;;9.55;100.00;99616.31;7399266;19;20015;-69
2023/12/26 04:02:40;;;;;;;0.60;0.38;;;;;;;9.55;100.00;99605.84;7399287;19;20010;-68
2023/12/26 04:05:09;;;;;;;0.35;0.30;;;;;;;9.55;100.00;99597.97;7396321;19;20473;-68
2023/12/26 04:07:41;;;;;;;1.02;0.55;;;;;;;9.54;100.00;99608.53;7399077;19;20014;-68
2023/12/26 04:10:11;;;;;;;2.10;0.40;;;;;;;9.54;100.00;99605.91;7399406;19;20011;-68
2023/12/26 04:12:40;;;;;;;0.90;0.50;;;;;;;9.53;100.00;99605.06;7397387;19;20372;-68
2023/12/26 04:15:10;;;;;;;3.83;0.68;;;;;;;9.53;100.00;99589.34;7398746;19;20010;-68
2023/12/26 04:17:39;;;;;;;1.60;0.70;;;;;;;9.52;100.00;99608.59;7396782;19;20015;-68
2023/12/26 04:20:08;;;;;;;1.45;0.60;;;;;;;9.53;100.00;99609.44;7396633;19;20046;-69
2023/12/26 04:22:37;;;;;;;0.73;0.50;;;;;;;9.53;100.00;99599.81;7396074;19;20031;-69
2023/12/26 04:25:09;;;;;;;0.85;0.57;;;;;;;9.54;100.00;99622.50;7396345;19;20032;-68
2023/12/26 04:27:38;;;;;;;2.05;0.60;;;;;;;9.57;100.00;99624.13;7396063;19;20011;-69
2023/12/26 04:30:09;;;;;;;0.85;0.50;;;;;;;9.56;100.00;99618.03;7395863;19;20360;-69
2023/12/26 04:32:37;;;;;;;1.55;0.57;;;;;;;9.58;100.00;99618.00;7396943;19;20007;-69
2023/12/26 04:35:07;;;;;;;1.35;0.80;;;;;;;9.59;100.00;99622.31;7395684;19;20014;-68
2023/12/26 04:37:35;;;;;;;0.98;0.55;;;;;;;9.61;100.00;99634.44;7398061;19;20014;-69
2023/12/26 04:40:05;;;;;;;1.45;0.77;;;;;;;9.61;100.00;99655.38;7395529;19;20038;-68
2023/12/26 04:42:36;;;;;;;1.35;0.50;;;;;;;9.63;100.00;99681.53;7396012;19;20031;-69
2023/12/26 04:45:05;;;;;;;1.13;0.22;;;;;;;9.63;100.00;99684.16;7395657;19;20015;-68
2023/12/26 04:47:34;;;;;;;1.10;0.20;;;;;;;9.61;100.00;99702.53;7397391;19;20018;-68
2023/12/26 04:50:03;;;;;;;1.20;0.28;;;;;;;9.53;100.00;99725.50;7397631;19;20010;-68
2023/12/26 04:52:31;;;;;;;0.20;0.20;;;;;;;9.35;100.00;99692.09;7396883;19;20018;-68
2023/12/26 04:55:00;;;;;;;1.30;0.30;;;;;;;9.14;100.00;99699.75;7395619;19;20019;-69
2023/12/26 04:57:28;;;;;;;0.20;0.20;;;;;;;9.01;100.00;99690.56;7395184;19;20033;-68
2023/12/26 05:00:00;;;;;;;0.60;0.30;;;;;;;8.87;100.00;99707.56;7395171;19;20490;-68
2023/12/26 05:02:28;;;;;;;0.50;0.20;;;;;;;8.76;100.00;99649.53;7397658;19;20057;-68
2023/12/26 05:04:57;;;;;;;0.40;0.28;;;;;;;8.67;100.00;99700.34;7394897;19;20477;-68
2023/12/26 05:07:25;;;;;;;0.45;0.20;;;;;;;8.61;100.00;99703.16;7397617;19;20011;-68
2023/12/26 05:09:54;;;;;;;0.73;0.30;;;;;;;8.56;100.00;99690.19;7398406;19;20489;-68
2023/12/26 05:12:22;;;;;;;0.93;0.32;;;;;;;8.53;100.00;99658.94;7396349;19;20010;-67
2023/12/26 05:14:51;;;;;;;1.05;0.30;;;;;;;8.52;100.00;99685.97;7394832;19;20015;-67
2023/12/26 05:17:22;;;;;;;6.00;0.95;;;;;;;8.52;100.00;99683.38;7394616;19;20041;-68
2023/12/26 05:20:00;;;;;;;0.52;0.47;;;;;;;8.53;100.00;99630.19;7396132;19;20007;-67
2023/12/26 05:22:28;;;;;;;0.70;0.60;;;;;;;8.55;100.00;99683.25;7396241;19;20482;-68
2023/12/26 05:24:57;;;;;;;1.20;0.82;;;;;;;8.57;100.00;99718.06;7394772;19;20015;-68
2023/12/26 05:27:26;;;;;;;1.15;0.43;;;;;;;8.60;100.00;99697.03;7396145;19;20018;-68
2023/12/26 05:29:54;;;;;;;2.90;1.90;;;;;;;8.62;100.00;99705.72;7396424;19;20010;-68
2023/12/26 05:32:25;;;;;;;1.52;0.90;;;;;;;8.64;100.00;99711.75;7396484;19;20019;-68
2023/12/26 05:34:55;;;;;;;1.15;0.80;;;;;;;8.67;100.00;99713.41;7393973;19;20018;-68
2023/12/26 05:37:24;;;;;;;1.05;0.95;;;;;;;8.68;100.00;99719.50;7396801;19;20010;-68
2023/12/26 05:39:53;;;;;;;1.15;0.80;;;;;;;8.70;100.00;99707.25;7396038;19;20346;-68
2023/12/26 05:42:23;;;;;;;1.38;0.68;;;;;;;8.71;100.00;99711.56;7396318;19;20034;-68
2023/12/26 05:44:52;;;;;;;1.15;0.70;;;;;;;8.72;100.00;99710.66;7393723;19;20037;-68
2023/12/26 05:47:21;;;;;;;0.80;0.70;;;;;;;8.73;100.00;99704.53;7395793;19;20458;-68
2023/12/26 05:49:53;;;;;;;1.52;1.08;;;;;;;8.73;100.00;99712.38;7395658;19;20034;-69
2023/12/26 05:52:21;;;;;;;4.00;1.10;;;;;;;8.74;100.00;99711.47;7395041;19;20390;-68
2023/12/26 05:54:47;;;;;;;2.38;1.25;;;;;;;8.75;100.00;99728.88;7394078;19;20027;-69
2023/12/26 05:57:16;;;;;;;3.05;0.90;;;;;;;8.75;100.00;99700.09;7395598;19;20014;-68
2023/12/26 05:59:44;;;;;;;1.05;0.68;;;;;;;8.74;100.00;99724.53;7393697;19;20041;-68
2023/12/26 06:02:13;;;;;;;3.08;0.68;;;;;;;8.74;100.00;99727.16;7395317;19;20042;-68
2023/12/26 06:04:41;;;;;;;1.30;0.52;;;;;;;8.74;100.00;99725.38;7393540;19;20014;-68
2023/12/26 06:07:12;;;;;;;1.35;0.57;;;;;;;8.73;100.00;99709.75;7395201;19;20006;-68
2023/12/26 06:09:41;;;;;;;0.85;0.68;;;;;;;8.74;100.00;99719.31;7394776;19;20509;-68
2023/12/26 06:12:10;;;;;;;0.70;0.60;;;;;;;8.74;100.00;99714.09;7394626;19;20023;-69
2023/12/26 06:14:39;;;;;;;0.52;0.50;;;;;;;8.73;100.00;99717.59;7393375;19;20034;-68
2023/12/26 06:17:14;;;;;;;0.85;0.68;;;;;;;8.72;100.00;99716.75;7393256;19;20014;-68
2023/12/26 06:19:42;;;;;;;2.63;0.50;;;;;;;8.72;100.00;99718.50;7393172;19;20052;-68
2023/12/26 06:22:13;;;;;;;0.65;0.47;;;;;;;8.71;100.00;99732.50;7394912;19;20018;-69
2023/12/26 06:24:42;;;;;;;3.47;0.63;;;;;;;8.70;100.00;99754.31;7393119;19;20014;-67
2023/12/26 06:27:11;;;;;;;1.77;0.45;;;;;;;8.70;100.00;99762.16;7392825;19;20027;-68
2023/12/26 06:29:39;;;;;;;1.70;0.50;;;;;;;8.71;100.00;99783.03;7392510;19;20030;-68
2023/12/26 06:32:08;;;;;;;1.63;0.63;;;;;;;8.72;100.00;99768.19;7392835;19;20015;-68
2023/12/26 06:34:37;;;;;;;0.40;0.40;;;;;;;8.73;100.00;99776.00;7392693;19;20022;-68
2023/12/26 06:37:06;;;;;;;0.50;0.40;;;;;;;8.73;100.00;99767.28;7395169;19;20014;-68
2023/12/26 06:39:39;;;;;;;0.40;0.40;;;;;;;8.74;100.00;99772.47;7394913;19;20011;-68
2023/12/26 06:42:08;;;;;;;0.70;0.50;;;;;;;8.74;100.00;99771.63;7392593;19;20486;-68
2023/12/26 06:44:36;;;;;;;0.38;0.38;;;;;;;8.74;100.00;99782.91;7392716;19;20018;-68
2023/12/26 06:47:05;;;;;;;1.42;0.50;;;;;;;8.74;100.00;99792.53;7397122;19;20015;-68
2023/12/26 06:49:33;;;;;;;1.52;0.60;;;;;;;8.75;100.00;99804.72;7398771;19;20015;-68
2023/12/26 06:52:02;;;;;;;0.70;0.50;;;;;;;8.75;100.00;99852.63;7401586;19;20011;-68
2023/12/26 06:54:33;;;;;;;7.88;0.90;;;;;;;8.75;100.00;99872.72;7398434;19;20010;-68
2023/12/26 06:57:07;;;;;;;0.40;0.30;;;;;;;8.67;100.00;99867.69;7401037;19;20014;-68
2023/12/26 06:59:35;;;;;;;0.55;0.40;;;;;;;8.54;100.00;99875.00;7399050;19;20006;-68
2023/12/26 07:02:04;;;;;;;0.38;0.30;;;;;;;8.38;100.00;99884.13;7401307;19;20031;-68
2023/12/26 07:04:32;;;;;;;0.30;0.30;;;;;;;8.26;100.00;99891.38;7398970;19;20014;-68
2023/12/26 07:07:01;;;;;;;0.50;0.38;;;;;;;8.15;100.00;99925.66;7400605;19;20020;-68
2023/12/26 07:09:29;;;;;;;1.52;0.32;;;;;;;8.05;100.00;99892.81;7400622;19;20494;-68
2023/12/26 07:11:58;;;;;;;1.08;0.40;;;;;;;7.98;100.00;99907.75;7404091;19;20010;-68
2023/12/26 07:14:30;;;;;;;0.60;0.47;;;;;;;7.95;100.00;99905.22;7399338;19;20014;-68
2023/12/26 07:16:59;;;;;;;0.55;0.40;;;;;;;7.94;100.00;99907.88;7398077;19;20014;-69
2023/12/26 07:19:28;;;;;;;1.00;0.77;;;;;;;7.93;100.00;99914.84;7401054;19;20331;-68
2023/12/26 07:21:56;;;;;;;0.88;0.75;;;;;;;7.94;100.00;99918.34;7400700;19;20027;-69
2023/12/26 07:24:25;;;;;;;1.38;0.80;;;;;;;7.96;100.00;99925.25;7398875;19;20022;-71
2023/12/26 07:27:00;;;;;;;1.15;0.80;;;;;;;7.98;100.00;99920.81;7398021;19;20018;-69
2023/12/26 07:29:31;;;;;;;2.00;0.80;;;;;;;8.01;100.00;99914.66;7399926;19;20362;-69
2023/12/26 07:32:00;;;;;;;1.05;0.88;;;;;;;8.02;100.00;99913.78;7398255;19;20018;-70
2023/12/26 07:34:29;;;;;;;1.50;1.10;;;;;;;8.03;100.00;99919.88;7397888;19;20014;-69
2023/12/26 07:36:58;;;;;;;1.83;1.15;;;;;;;8.02;100.00;99928.59;7399664;19;20380;-68
2023/12/26 07:39:27;;;;;;;3.22;2.45;;;;;;;7.99;100.00;99926.91;7399806;19;20011;-68
2023/12/26 07:41:55;;;;;;;3.00;1.15;;;;;;;7.96;100.00;99934.81;7399718;19;20010;-69
2023/12/26 07:44:24;;;;;;;4.90;1.13;;;;;;;7.91;100.00;99941.91;7398017;19;20026;-69
2023/12/26 07:46:55;;;;;;;2.83;0.60;;;;;;;7.86;100.00;99944.63;7399422;19;20011;-68
2023/12/26 07:49:24;;;;;;;2.45;0.63;;;;;;;7.80;100.00;99950.84;7400068;19;20027;-66
2023/12/26 07:51:59;;;;;;;1.75;0.60;;;;;;;7.75;100.00;99957.94;7396799;19;20516;-66
2023/12/26 07:54:28;;;;;;;1.90;0.70;;;;;;;7.74;100.00;99957.97;7397467;19;20010;-67
2023/12/26 07:56:56;;;;;;;2.72;0.90;;;;;;;7.71;100.00;99977.19;7396404;19;20006;-67
2023/12/26 07:59:25;;;;;;;3.28;0.82;;;;;;;7.69;100.00;99989.41;7396723;19;20427;-67
2023/12/26 08:01:56;;;;;;;1.08;0.60;;;;;;;7.66;100.00;99990.31;7399232;19;20019;-67
2023/12/26 08:04:25;;;;;;;1.00;0.80;;;;;;;7.65;100.00;99985.16;7396795;19;20015;-66
2023/12/26 08:06:53;;;;;;;1.02;0.90;;;;;;;7.62;100.00;99983.47;7396592;19;20011;-67
2023/12/26 08:09:22;;;;;;;2.35;0.63;;;;;;;7.61;100.00;99994.78;7398600;19;20011;-69
2023/12/26 08:11:50;;;;;;;2.13;0.63;;;;;;;7.59;100.00;100014.00;7398352;19;20002;-69
2023/12/26 08:14:19;;;;;;;3.83;0.80;;;;;;;7.55;100.00;100005.38;7396915;19;20018;-69
2023/12/26 08:16:48;;;;;;;2.05;0.85;;;;;;;7.53;100.00;100019.34;7397473;19;20477;-69
2023/12/26 08:19:19;;;;;;;2.80;0.70;;;;;;;7.51;100.00;100027.22;7397932;19;20019;-69
2023/12/26 08:21:47;;;;;;;2.17;1.10;;;;;;;7.50;100.00;100030.69;7398859;19;20021;-69
2023/12/26 08:24:16;;;;;;;4.15;1.60;;;;;;;7.49;100.00;100035.06;7397028;19;20037;-69
2023/12/26 08:26:44;;;;;;;4.00;1.83;;;;;;;7.49;100.00;100050.75;7396589;19;20014;-69
2023/12/26 08:29:13;;;;;;;2.13;0.90;;;;;;;7.48;100.00;100037.69;7398842;19;20046;-69
2023/12/26 08:31:41;;;;;;;2.25;1.00;;;;;;;7.50;100.00;100038.53;7398740;19;20023;-69
2023/12/26 08:34:10;;;;;;;2.70;1.20;;;;;;;7.50;100.00;100070.69;7397194;19;20385;-69
2023/12/26 08:36:41;;;;;;;2.53;0.90;;;;;;;7.50;100.00;100060.25;7398072;19;20015;-69
2023/12/26 08:39:10;;;;;;;1.85;0.90;;;;;;;7.51;100.00;100071.59;7397674;19;20010;-69
2023/12/26 08:41:38;;;;;;;2.72;1.20;;;;;;;7.50;100.00;100060.25;7397895;19;20006;-69
2023/12/26 08:44:07;;;;;;;1.98;1.20;;;;;;;7.49;100.00;100063.78;7396096;19;20018;-69
2023/12/26 08:46:35;;;;;;;2.65;1.38;;;;;;;7.47;100.00;100083.84;7397552;19;20014;-69
2023/12/26 08:49:05;;;;;;;3.42;1.80;;;;;;;7.48;100.00;100074.25;7397660;19;20010;-69
2023/12/26 08:51:33;;;;;;;3.65;1.70;;;;;;;7.47;100.00;100081.22;7397790;19;20073;-69
2023/12/26 08:54:05;;;;;;;5.22;1.90;;;;;;;7.45;100.00;100090.81;7396497;19;20029;-69
2023/12/26 08:56:34;;;;;;;4.45;1.27;;;;;;;7.46;100.00;100108.22;7396123;19;20018;-69
2023/12/26 08:59:03;;;;;;;2.70;1.52;;;;;;;7.49;100.00;100094.22;7397878;19;20090;-69
2023/12/26 09:01:31;;;;;;;3.40;1.40;;;;;;;7.49;100.00;100102.94;7395845;19;20074;-69
2023/12/26 09:04:00;;;;;;;4.57;1.38;;;;;;;7.50;100.00;100117.69;7396015;19;20383;-69
2023/12/26 09:06:28;;;;;;;5.07;1.40;;;;;;;7.53;100.00;100101.09;7395634;19;20335;-69
2023/12/26 09:08:57;;;;;;;3.63;1.25;;;;;;;7.56;100.00;100108.06;7397097;19;20011;-69
2023/12/26 09:11:28;;;;;;;3.15;1.10;;;;;;;7.58;100.00;100122.78;7396736;19;20024;-69
2023/12/26 09:13:57;;;;;;;2.67;1.27;;;;;;;7.62;100.00;100132.28;7398461;19;20363;-70
2023/12/26 09:16:26;;;;;;;2.70;1.50;;;;;;;7.64;100.00;100140.91;7398908;19;20006;-69
2023/12/26 09:18:54;;;;;;;5.43;1.60;;;;;;;7.67;100.00;100142.59;7395843;19;20021;-69
2023/12/26 09:21:23;;;;;;;3.00;1.42;;;;;;;7.70;100.00;100149.56;7396421;19;20039;-69
2023/12/26 09:23:51;;;;;;;3.92;1.52;;;;;;;7.72;100.00;100161.69;7396502;19;20018;-69
2023/12/26 09:26:24;;;;;;;3.13;1.30;;;;;;;7.72;100.00;100160.81;7399743;19;20010;-70
2023/12/26 09:28:55;;;;;;;4.13;1.50;;;;;;;7.72;100.00;100160.81;7397385;19;20369;-68
2023/12/26 09:31:24;;;;;;;1.88;1.10;;;;;;;7.74;100.00;100159.03;7395863;19;20023;-68
2023/12/26 09:33:52;;;;;;;4.60;1.42;;;;;;;7.76;100.00;100157.25;7399544;19;20011;-69
2023/12/26 09:36:21;;;;;;;2.92;1.27;;;;;;;7.75;100.00;100155.53;7400428;19;20065;-69
2023/12/26 09:38:49;;;;;;;6.78;1.50;;;;;;;7.76;100.00;100165.94;7402442;19;20362;-69
2023/12/26 09:41:24;;;;;;;5.68;1.67;;;;;;;7.77;100.00;100166.78;7403190;19;20361;-67
2023/12/26 09:43:56;;;;;;;3.50;1.15;;;;;;;7.80;100.00;100166.75;7398561;19;20018;-67
2023/12/26 09:46:25;;;;;;;3.25;1.50;;;;;;;7.82;100.00;100180.63;7400268;19;20010;-66
2023/12/26 09:48:54;;;;;;;7.32;1.80;;;;;;;7.82;100.00;100186.72;7395517;19;20052;-66
2023/12/26 09:51:25;;;;;;;3.85;1.33;;;;;;;7.88;100.00;100179.66;7395604;19;20027;-66
2023/12/26 09:53:59;;;;;;;3.80;1.55;;;;;;;7.86;100.00;100178.81;7395091;19;20037;-66
2023/12/26 09:56:30;;;;;;;4.10;1.38;;;;;;;7.90;100.00;100181.34;7397566;19;20087;-66
2023/12/26 09:59:02;;;;;;;3.08;0.93;;;;;;;7.91;100.00;100172.63;7394934;19;20361;-66
2023/12/26 10:01:30;;;;;;;4.18;1.17;;;;;;;7.96;100.00;100180.34;7397325;19;20018;-68
2023/12/26 10:04:01;;;;;;;4.90;1.10;;;;;;;7.97;100.00;100188.19;7395309;19;20018;-68
2023/12/26 10:06:30;;;;;;;4.80;1.10;;;;;;;7.98;100.00;100191.66;7397476;19;20021;-68
2023/12/26 10:08:58;;;;;;;4.38;1.33;;;;;;;7.98;100.00;100246.50;7398069;19;20015;-67
2023/12/26 10:11:28;;;;;;;4.03;1.05;;;;;;;8.01;100.00;100209.00;7396587;19;20486;-68
2023/12/26 10:13:58;;;;;;;3.22;1.05;;;;;;;8.03;100.00;100218.53;7397980;19;20011;-67
2023/12/26 10:16:29;;;;;;;7.07;1.50;;;;;;;8.05;100.00;100210.66;7396468;19;20014;-68
2023/12/26 10:18:57;;;;;;;2.30;1.00;;;;;;;8.07;100.00;100222.81;7393999;19;20018;-68
2023/12/26 10:21:26;;;;;;;5.15;1.80;;;;;;;8.14;100.00;100218.34;7397419;19;20018;-68
2023/12/26 10:23:54;;;;;;;4.72;1.25;;;;;;;8.19;100.00;100266.13;7399802;19;20383;-68
2023/12/26 10:26:23;;;;;;;3.42;1.40;;;;;;;8.28;100.00;100239.81;7401906;19;20010;-68
2023/12/26 10:28:53;;;;;;;6.13;1.08;;;;;;;8.34;100.00;100261.47;7402273;19;20074;-68
2023/12/26 10:31:21;;;;;;;3.20;1.33;;;;;;;8.38;100.00;100250.94;7399390;19;20018;-68
2023/12/26 10:33:52;;;;;;;4.25;1.48;;;;;;;8.42;100.00;100246.53;7398276;19;20454;-68
2023/12/26 10:36:22;;;;;;;5.88;2.92;;;;;;;8.46;100.00;100254.28;7401136;19;20007;-68
2023/12/26 10:38:51;;;;;;;4.50;2.00;;;;;;;8.45;100.00;100267.34;7401736;19;20014;-67
2023/12/26 10:41:31;;;;;;;4.60;1.10;;;;;;;8.43;98.09;100269.16;7401233;19;20014;-68
2023/12/26 10:44:02;;;;;;;3.83;0.93;;;;;;;8.39;94.69;100267.47;7399721;19;20010;-68
2023/12/26 10:46:33;;;;;;;4.53;0.73;;;;;;;8.36;97.30;100278.84;7401776;19;20426;-68
2023/12/26 10:49:07;;;;;;;3.67;0.68;;;;;;;8.29;89.37;100319.94;7401303;19;20380;-68
2023/12/26 10:51:36;;;;;;;2.92;0.90;;;;;;;8.25;94.46;100313.06;7398194;19;20027;-68
2023/12/26 10:54:15;;;;;;;4.50;1.10;;;;;;;8.20;89.95;100282.66;7399083;19;20027;-67
2023/12/26 10:56:45;;;;;;;6.03;1.10;;;;;;;8.15;88.79;100288.84;7398579;19;20098;-68
2023/12/26 13:51:29;;;;;;;4.15;0.98;;;;;;;9.75;81.83;100443.38;7408297;19;20462;-66
2023/12/26 13:54:03;;;;;;;4.53;1.25;;;;;;;9.89;84.48;100445.69;7395728;19;20021;-66
2023/12/26 13:56:29;;;;;;;4.53;0.75;;;;;;;10.01;88.11;100469.88;7393283;19;20023;-66
2023/12/26 13:58:57;;;;;;;4.90;1.30;;;;;;;10.06;81.34;100458.41;7393704;19;20359;-65
2023/12/26 14:01:25;;;;;;;7.65;2.25;;;;;;;10.07;83.41;100451.38;7395258;19;20010;-66
2023/12/26 14:03:55;;;;;;;4.35;1.02;;;;;;;10.06;75.03;100449.66;7394644;19;20019;-67
2023/12/26 14:06:23;;;;;;;2.92;0.77;;;;;;;10.06;76.76;100466.25;7395687;19;20021;-67
2023/12/26 14:08:54;;;;;;;2.83;0.70;;;;;;;10.02;72.76;100434.91;7393359;19;20031;-67
2023/12/26 14:11:23;;;;;;;3.22;0.82;;;;;;;9.98;81.69;100441.13;7394607;19;20506;-66
2023/12/26 14:13:51;;;;;;;4.57;0.80;;;;;;;9.86;79.52;100481.59;7394074;19;20018;-66
2023/12/26 14:16:22;;;;;;;3.28;0.70;;;;;;;9.77;80.32;100467.81;7393264;19;20024;-66
2023/12/26 14:18:51;;;;;;;4.70;0.82;;;;;;;9.69;77.79;100469.75;7393399;19;20482;-66
2023/12/26 14:21:19;;;;;;;5.35;1.80;;;;;;;9.62;77.26;100495.19;7396062;19;20037;-66
2023/12/26 14:23:47;;;;;;;5.55;0.98;;;;;;;9.55;83.93;100477.88;7393844;19;20029;-66
2023/12/26 14:26:18;;;;;;;4.68;1.52;;;;;;;9.48;82.91;100491.16;7395248;19;20478;-67
2023/12/26 14:28:46;;;;;;;12.30;1.65;;;;;;;9.35;77.11;100521.97;7396755;19;20021;-70
2023/12/26 14:31:14;;;;;;;5.28;1.42;;;;;;;9.28;85.97;100502.91;7394956;19;20015;-66
2023/12/26 14:33:42;;;;;;;4.80;1.33;;;;;;;9.15;83.35;100520.63;7395353;19;20014;-66